Time,TemperatureF,DewpointF,PressureIn,WindDirection,WindDirectionDegrees,WindSpeedMPH,WindSpeedGustMPH,Humidity,HourlyPrecipIn,Conditions,Clouds,dailyrainin,SoftwareType,DateUTC
2013-02-17 00:02:00,27.0,20.0,30.06,NW,313,0.0,0.0,73,0.00,,,0.03,,2013-02-17 05:02:00,
2013-02-17 00:12:00,27.0,20.0,30.06,NW,313,0.0,1.0,74,0.00,,,0.03,,2013-02-17 05:12:00,
2013-02-17 00:22:00,27.0,20.0,30.06,NW,313,0.0,1.0,74,0.00,,,0.03,,2013-02-17 05:22:00,
2013-02-17 00:33:00,27.0,20.0,30.06,NW,313,0.0,1.0,74,0.00,,,0.03,,2013-02-17 05:33:00,
2013-02-17 00:42:00,27.0,20.0,30.06,NW,313,0.0,1.0,74,0.00,,,0.03,,2013-02-17 05:42:00,
2013-02-17 00:52:00,27.0,20.0,30.06,NW,313,0.0,1.0,74,0.00,,,0.03,,2013-02-17 05:52:00,
2013-02-17 01:02:00,27.0,20.0,30.07,NW,313,1.0,2.0,75,0.00,,,0.03,,2013-02-17 06:02:00,
2013-02-17 01:11:00,27.0,20.0,30.07,NW,313,1.0,2.0,75,0.00,,,0.03,,2013-02-17 06:11:00,
2013-02-17 01:21:00,26.0,19.0,30.07,NW,313,0.0,0.0,75,0.00,,,0.03,,2013-02-17 06:21:00,
2013-02-17 01:32:00,26.0,19.0,30.07,NW,313,0.0,0.0,75,0.00,,,0.03,,2013-02-17 06:32:00,
2013-02-17 01:42:00,26.0,19.0,30.07,NW,313,0.0,0.0,75,0.00,,,0.03,,2013-02-17 06:42:00,
2013-02-17 01:51:00,26.0,19.0,30.07,NW,313,0.0,0.0,75,0.00,,,0.03,,2013-02-17 06:51:00,
2013-02-17 02:01:00,25.0,19.0,30.07,NW,319,1.0,2.0,77,0.00,,,0.03,,2013-02-17 07:01:00,
2013-02-17 02:11:00,25.0,19.0,30.07,NW,319,1.0,2.0,77,0.00,,,0.03,,2013-02-17 07:11:00,
2013-02-17 02:21:00,25.0,19.0,30.07,NW,319,0.0,0.0,78,0.00,,,0.03,,2013-02-17 07:21:00,
2013-02-17 02:32:00,24.0,18.0,30.07,NW,319,0.0,0.0,77,0.00,,,0.03,,2013-02-17 07:32:00,
2013-02-17 02:42:00,24.0,18.0,30.07,NW,319,0.0,0.0,77,0.00,,,0.03,,2013-02-17 07:42:00,
2013-02-17 02:51:00,24.0,18.0,30.08,NW,319,0.0,0.0,77,0.00,,,0.03,,2013-02-17 07:51:00,
2013-02-17 03:01:00,24.0,18.0,30.08,NW,319,0.0,2.0,77,0.00,,,0.03,,2013-02-17 08:01:00,
2013-02-17 03:11:00,24.0,18.0,30.08,NW,319,0.0,2.0,77,0.00,,,0.03,,2013-02-17 08:11:00,
2013-02-17 03:21:00,23.0,16.0,30.08,NW,319,0.0,0.0,75,0.00,,,0.03,,2013-02-17 08:21:00,
2013-02-17 03:32:00,23.0,17.0,30.09,NW,319,0.0,1.0,77,0.00,,,0.03,,2013-02-17 08:32:00,
2013-02-17 03:42:00,23.0,17.0,30.09,NW,319,0.0,1.0,77,0.00,,,0.03,,2013-02-17 08:42:00,
2013-02-17 03:52:00,23.0,17.0,30.09,NW,318,0.0,2.0,78,0.00,,,0.03,,2013-02-17 08:52:00,
2013-02-17 04:02:00,23.0,17.0,30.09,NW,313,0.0,3.0,77,0.00,,,0.03,,2013-02-17 09:02:00,
2013-02-17 04:11:00,23.0,17.0,30.09,NW,313,0.0,3.0,77,0.00,,,0.03,,2013-02-17 09:11:00,
2013-02-17 04:21:00,23.0,17.0,30.10,NW,313,0.0,1.0,77,0.00,,,0.03,,2013-02-17 09:21:00,
2013-02-17 04:32:00,22.0,16.0,30.10,NW,313,0.0,1.0,77,0.00,,,0.03,,2013-02-17 09:32:00,
2013-02-17 04:42:00,22.0,16.0,30.10,NW,313,0.0,1.0,77,0.00,,,0.03,,2013-02-17 09:42:00,
2013-02-17 04:51:00,22.0,16.0,30.11,NW,313,0.0,1.0,78,0.00,,,0.03,,2013-02-17 09:51:00,
2013-02-17 05:01:00,22.0,16.0,30.11,NW,313,0.0,1.0,79,0.00,,,0.03,,2013-02-17 10:01:00,
2013-02-17 05:11:00,22.0,16.0,30.11,NW,313,0.0,1.0,79,0.00,,,0.03,,2013-02-17 10:11:00,
2013-02-17 05:21:00,22.0,16.0,30.11,NW,313,0.0,2.0,77,0.00,,,0.03,,2013-02-17 10:21:00,
2013-02-17 05:32:00,21.0,15.0,30.11,NW,313,0.0,0.0,76,0.00,,,0.03,,2013-02-17 10:32:00,
2013-02-17 05:42:00,21.0,15.0,30.11,NW,313,0.0,0.0,76,0.00,,,0.03,,2013-02-17 10:42:00,
2013-02-17 05:52:00,21.0,15.0,30.11,NW,313,0.0,0.0,76,0.00,,,0.03,,2013-02-17 10:52:00,
2013-02-17 06:01:00,21.0,15.0,30.13,NW,313,0.0,0.0,76,0.00,,,0.03,,2013-02-17 11:01:00,
2013-02-17 06:11:00,21.0,15.0,30.13,NW,313,0.0,0.0,76,0.00,,,0.03,,2013-02-17 11:11:00,
2013-02-17 06:22:00,20.0,14.0,30.14,NW,313,0.0,2.0,77,0.00,,,0.03,,2013-02-17 11:22:00,
2013-02-17 06:32:00,20.0,14.0,30.14,NW,313,0.0,1.0,77,0.00,,,0.03,,2013-02-17 11:32:00,
2013-02-17 06:42:00,20.0,14.0,30.14,NW,313,0.0,1.0,77,0.00,,,0.03,,2013-02-17 11:42:00,
2013-02-17 06:52:00,20.0,14.0,30.15,NW,313,0.0,2.0,76,0.00,,,0.03,,2013-02-17 11:52:00,
2013-02-17 07:03:00,20.0,13.0,30.15,NW,313,0.0,2.0,75,0.00,,,0.03,,2013-02-17 12:03:00,
2013-02-17 07:11:00,20.0,13.0,30.15,NW,313,0.0,2.0,75,0.00,,,0.03,,2013-02-17 12:11:00,
2013-02-17 07:22:00,20.0,13.0,30.16,NW,313,0.0,0.0,74,0.00,,,0.03,,2013-02-17 12:22:00,
2013-02-17 07:32:00,20.0,13.0,30.16,NW,313,0.0,2.0,75,0.00,,,0.03,,2013-02-17 12:32:00,
2013-02-17 07:42:00,20.0,13.0,30.16,NW,313,0.0,2.0,75,0.00,,,0.03,,2013-02-17 12:42:00,
2013-02-17 07:52:00,20.0,14.0,30.16,NW,313,0.0,2.0,76,0.00,,,0.03,,2013-02-17 12:52:00,
2013-02-17 08:02:00,20.0,14.0,30.17,NW,313,0.0,3.0,77,0.00,,,0.03,,2013-02-17 13:02:00,
2013-02-17 08:12:00,20.0,14.0,30.17,NW,313,0.0,3.0,77,0.00,,,0.03,,2013-02-17 13:12:00,
2013-02-17 08:22:00,22.0,16.0,30.17,NW,315,0.0,3.0,76,0.00,,,0.03,,2013-02-17 13:22:00,
2013-02-17 08:32:00,25.0,16.0,30.18,NW,315,0.0,0.0,67,0.00,,,0.03,,2013-02-17 13:32:00,
2013-02-17 08:42:00,25.0,16.0,30.18,NW,315,0.0,0.0,67,0.00,,,0.03,,2013-02-17 13:42:00,
2013-02-17 08:51:00,27.0,14.0,30.18,NW,315,0.0,2.0,58,0.00,,,0.03,,2013-02-17 13:51:00,
2013-02-17 09:01:00,29.0,13.0,30.19,NNE,30,1.0,3.0,51,0.00,,,0.03,,2013-02-17 14:01:00,
2013-02-17 09:11:00,29.0,13.0,30.19,NNE,30,1.0,3.0,51,0.00,,,0.03,,2013-02-17 14:11:00,
2013-02-17 09:22:00,30.0,13.0,30.19,NNE,32,0.0,2.0,48,0.00,,,0.03,,2013-02-17 14:22:00,
2013-02-17 09:32:00,32.0,14.0,30.20,NNE,24,3.0,7.0,46,0.00,,,0.03,,2013-02-17 14:32:00,
2013-02-17 09:42:00,32.0,14.0,30.20,NNE,24,3.0,7.0,46,0.00,,,0.03,,2013-02-17 14:42:00,
2013-02-17 09:52:00,34.0,13.0,30.20,NW,321,2.0,6.0,42,0.00,,,0.03,,2013-02-17 14:52:00,
2013-02-17 10:02:00,35.0,13.0,30.20,WSW,248,0.0,4.0,39,0.00,,,0.03,,2013-02-17 15:02:00,
2013-02-17 10:11:00,35.0,13.0,30.20,WSW,248,0.0,4.0,39,0.00,,,0.03,,2013-02-17 15:11:00,
2013-02-17 10:22:00,36.0,15.0,30.20,NW,319,2.0,4.0,41,0.00,,,0.03,,2013-02-17 15:22:00,
2013-02-17 10:32:00,36.0,10.0,30.20,NE,49,2.0,5.0,34,0.00,,,0.03,,2013-02-17 15:32:00,
2013-02-17 10:42:00,36.0,10.0,30.20,NE,49,2.0,5.0,34,0.00,,,0.03,,2013-02-17 15:42:00,
2013-02-17 10:52:00,36.0,8.0,30.20,NNW,340,1.0,4.0,31,0.00,,,0.03,,2013-02-17 15:52:00,
2013-02-17 11:01:00,38.0,13.0,30.21,SW,234,2.0,8.0,35,0.00,,,0.03,,2013-02-17 16:01:00,
2013-02-17 11:12:00,38.0,13.0,30.21,SW,234,2.0,8.0,35,0.00,,,0.03,,2013-02-17 16:12:00,
2013-02-17 11:22:00,38.0,9.0,30.21,NW,308,1.0,4.0,29,0.00,,,0.03,,2013-02-17 16:22:00,
2013-02-17 11:32:00,38.0,11.0,30.21,NNE,24,2.0,8.0,32,0.00,,,0.03,,2013-02-17 16:32:00,
2013-02-17 11:42:00,38.0,11.0,30.21,NNE,24,2.0,8.0,32,0.00,,,0.03,,2013-02-17 16:42:00,
2013-02-17 11:52:00,40.0,12.0,30.21,SE,146,2.0,7.0,31,0.00,,,0.03,,2013-02-17 16:52:00,
2013-02-17 12:02:00,40.0,10.0,30.21,NE,37,2.0,9.0,29,0.00,,,0.03,,2013-02-17 17:02:00,
2013-02-17 12:11:00,40.0,10.0,30.21,NE,37,2.0,9.0,29,0.00,,,0.03,,2013-02-17 17:11:00,
2013-02-17 12:21:00,39.0,8.0,30.21,ESE,107,2.0,8.0,27,0.00,,,0.03,,2013-02-17 17:21:00,
2013-02-17 12:32:00,39.0,8.0,30.21,ESE,107,2.0,8.0,27,0.00,,,0.03,,2013-02-17 17:32:00,
2013-02-17 12:42:00,39.0,8.0,30.21,ESE,107,2.0,8.0,27,0.00,,,0.03,,2013-02-17 17:42:00,
2013-02-17 12:52:00,40.0,7.0,30.20,NE,40,3.0,8.0,25,0.00,,,0.03,,2013-02-17 17:52:00,
2013-02-17 13:02:00,40.0,7.0,30.18,ENE,64,3.0,6.0,25,0.00,,,0.03,,2013-02-17 18:02:00,
2013-02-17 13:11:00,40.0,7.0,30.18,ENE,64,3.0,6.0,25,0.00,,,0.03,,2013-02-17 18:11:00,
2013-02-17 13:22:00,41.0,8.0,30.18,East,80,3.0,9.0,25,0.00,,,0.03,,2013-02-17 18:22:00,
2013-02-17 13:33:00,42.0,6.0,30.17,SE,145,2.0,7.0,22,0.00,,,0.03,,2013-02-17 18:33:00,
2013-02-17 13:42:00,42.0,6.0,30.17,SE,145,2.0,7.0,22,0.00,,,0.03,,2013-02-17 18:42:00,
2013-02-17 13:52:00,44.0,7.0,30.17,NW,320,1.0,10.0,21,0.00,,,0.03,,2013-02-17 18:52:00,
2013-02-17 14:02:00,46.0,12.0,30.16,WSW,240,3.0,13.0,25,0.00,,,0.03,,2013-02-17 19:02:00,
2013-02-17 14:11:00,46.0,12.0,30.16,WSW,240,3.0,13.0,25,0.00,,,0.03,,2013-02-17 19:11:00,
2013-02-17 14:22:00,47.0,10.0,30.16,North,5,2.0,6.0,22,0.00,,,0.03,,2013-02-17 19:22:00,
2013-02-17 14:32:00,46.0,7.0,30.15,West,275,2.0,7.0,20,0.00,,,0.03,,2013-02-17 19:32:00,
2013-02-17 14:42:00,46.0,7.0,30.15,West,275,2.0,7.0,20,0.00,,,0.03,,2013-02-17 19:42:00,
2013-02-17 14:52:00,47.0,8.0,30.16,North,351,3.0,9.0,20,0.00,,,0.03,,2013-02-17 19:52:00,
2013-02-17 15:02:00,46.0,5.0,30.15,West,267,3.0,6.0,18,0.00,,,0.03,,2013-02-17 20:02:00,
2013-02-17 15:11:00,46.0,5.0,30.15,West,267,3.0,6.0,18,0.00,,,0.03,,2013-02-17 20:11:00,
2013-02-17 15:22:00,46.0,7.0,30.15,SSW,193,3.0,7.0,20,0.00,,,0.03,,2013-02-17 20:22:00,
2013-02-17 15:32:00,48.0,9.0,30.15,WNW,298,4.0,9.0,20,0.00,,,0.02,,2013-02-17 20:32:00,
2013-02-17 15:42:00,48.0,9.0,30.15,WNW,298,4.0,9.0,20,0.00,,,0.02,,2013-02-17 20:42:00,
2013-02-17 15:52:00,46.0,2.0,30.15,NW,313,3.0,7.0,16,0.00,,,0.02,,2013-02-17 20:52:00,
2013-02-17 16:02:00,47.0,6.0,30.15,NW,308,3.0,8.0,18,0.00,,,0.02,,2013-02-17 21:02:00,
2013-02-17 16:11:00,47.0,6.0,30.15,NW,308,3.0,8.0,18,0.00,,,0.02,,2013-02-17 21:11:00,
2013-02-17 16:21:00,47.0,7.0,30.15,WNW,282,4.0,8.0,19,0.00,,,0.02,,2013-02-17 21:21:00,
2013-02-17 16:32:00,47.0,8.0,30.16,WSW,246,1.0,7.0,20,0.00,,,0.00,,2013-02-17 21:32:00,
2013-02-17 16:42:00,47.0,8.0,30.16,WSW,246,1.0,7.0,20,0.00,,,0.00,,2013-02-17 21:42:00,
2013-02-17 16:52:00,46.0,6.0,30.16,North,360,3.0,9.0,19,0.00,,,0.00,,2013-02-17 21:52:00,
2013-02-17 17:01:00,45.0,5.0,30.16,NW,317,2.0,5.0,19,0.00,,,0.00,,2013-02-17 22:01:00,
2013-02-17 17:12:00,45.0,5.0,30.16,NW,317,2.0,5.0,19,0.00,,,0.00,,2013-02-17 22:12:00,
2013-02-17 17:22:00,44.0,6.0,30.16,WSW,251,2.0,8.0,20,0.00,,,0.00,,2013-02-17 22:22:00,
2013-02-17 17:32:00,44.0,7.0,30.17,West,279,2.0,5.0,21,0.00,,,0.00,,2013-02-17 22:32:00,
2013-02-17 17:42:00,44.0,7.0,30.17,West,279,2.0,5.0,21,0.00,,,0.00,,2013-02-17 22:42:00,
2013-02-17 17:52:00,43.0,10.0,30.18,WNW,301,2.0,4.0,26,0.00,,,0.00,,2013-02-17 22:52:00,
2013-02-17 18:02:00,42.0,11.0,30.19,NW,319,1.0,4.0,28,0.00,,,0.00,,2013-02-17 23:02:00,
2013-02-17 18:11:00,42.0,11.0,30.19,NW,319,1.0,4.0,28,0.00,,,0.00,,2013-02-17 23:11:00,
2013-02-17 18:21:00,41.0,10.0,30.19,West,280,1.0,4.0,28,0.00,,,0.00,,2013-02-17 23:21:00,
2013-02-17 18:32:00,40.0,11.0,30.20,WNW,282,1.0,5.0,30,0.00,,,0.00,,2013-02-17 23:32:00,
2013-02-17 18:42:00,40.0,11.0,30.20,WNW,282,1.0,5.0,30,0.00,,,0.00,,2013-02-17 23:42:00,
2013-02-17 18:52:00,39.0,11.0,30.21,WNW,287,0.0,3.0,31,0.00,,,0.00,,2013-02-17 23:52:00,
2013-02-17 19:02:00,39.0,12.0,30.22,West,263,0.0,3.0,32,0.00,,,0.00,,2013-02-18 00:02:00,
2013-02-17 19:12:00,39.0,12.0,30.22,West,263,0.0,3.0,32,0.00,,,0.00,,2013-02-18 00:12:00,
2013-02-17 19:22:00,38.0,11.0,30.23,NW,317,1.0,4.0,33,0.00,,,0.00,,2013-02-18 00:22:00,
2013-02-17 19:32:00,38.0,11.0,30.23,NW,305,0.0,2.0,33,0.00,,,0.00,,2013-02-18 00:32:00,
2013-02-17 19:42:00,38.0,11.0,30.23,NW,305,0.0,2.0,33,0.00,,,0.00,,2013-02-18 00:42:00,
2013-02-17 19:52:00,37.0,11.0,30.24,NW,305,0.0,2.0,34,0.00,,,0.00,,2013-02-18 00:52:00,
2013-02-17 20:01:00,36.0,12.0,30.24,NW,305,1.0,2.0,36,0.00,,,0.00,,2013-02-18 01:01:00,
2013-02-17 20:12:00,36.0,12.0,30.24,NW,305,1.0,2.0,36,0.00,,,0.00,,2013-02-18 01:12:00,
2013-02-17 20:21:00,36.0,12.0,30.24,NW,305,0.0,1.0,36,0.00,,,0.00,,2013-02-18 01:21:00,
2013-02-17 20:32:00,35.0,12.0,30.25,NW,305,0.0,1.0,38,0.00,,,0.00,,2013-02-18 01:32:00,
2013-02-17 20:42:00,35.0,12.0,30.25,NW,305,0.0,1.0,38,0.00,,,0.00,,2013-02-18 01:42:00,
2013-02-17 20:51:00,35.0,13.0,30.25,NW,305,0.0,1.0,39,0.00,,,0.00,,2013-02-18 01:51:00,
2013-02-17 21:02:00,34.0,13.0,30.26,NW,305,0.0,1.0,41,0.00,,,0.00,,2013-02-18 02:02:00,
2013-02-17 21:11:00,34.0,13.0,30.26,NW,305,0.0,1.0,41,0.00,,,0.00,,2013-02-18 02:11:00,
2013-02-17 21:22:00,32.0,15.0,30.26,NW,305,0.0,1.0,49,0.00,,,0.00,,2013-02-18 02:22:00,
2013-02-17 21:32:00,31.0,14.0,30.27,NW,305,0.0,0.0,49,0.00,,,0.00,,2013-02-18 02:32:00,
2013-02-17 21:42:00,31.0,14.0,30.27,NW,305,0.0,0.0,49,0.00,,,0.00,,2013-02-18 02:42:00,
2013-02-17 21:52:00,31.0,14.0,30.27,NW,305,0.0,1.0,49,0.00,,,0.00,,2013-02-18 02:52:00,
2013-02-17 22:02:00,30.0,15.0,30.27,NW,305,0.0,0.0,54,0.00,,,0.00,,2013-02-18 03:02:00,
2013-02-17 22:11:00,30.0,15.0,30.27,NW,305,0.0,0.0,54,0.00,,,0.00,,2013-02-18 03:11:00,
2013-02-17 22:22:00,30.0,16.0,30.28,NW,305,0.0,0.0,55,0.00,,,0.00,,2013-02-18 03:22:00,
2013-02-17 22:32:00,30.0,16.0,30.29,NW,305,0.0,1.0,56,0.00,,,0.00,,2013-02-18 03:32:00,
2013-02-17 22:42:00,30.0,16.0,30.29,NW,305,0.0,1.0,56,0.00,,,0.00,,2013-02-18 03:42:00,
2013-02-17 22:52:00,29.0,17.0,30.29,NW,305,0.0,1.0,60,0.00,,,0.00,,2013-02-18 03:52:00,
2013-02-17 23:01:00,29.0,16.0,30.28,NW,305,0.0,0.0,59,0.00,,,0.00,,2013-02-18 04:01:00,
2013-02-17 23:11:00,29.0,16.0,30.28,NW,305,0.0,0.0,59,0.00,,,0.00,,2013-02-18 04:11:00,
2013-02-17 23:21:00,29.0,17.0,30.28,NW,305,0.0,0.0,60,0.00,,,0.00,,2013-02-18 04:21:00,
2013-02-17 23:32:00,29.0,17.0,30.29,NW,305,0.0,1.0,60,0.00,,,0.00,,2013-02-18 04:32:00,
2013-02-17 23:42:00,29.0,17.0,30.29,NW,305,0.0,1.0,60,0.00,,,0.00,,2013-02-18 04:42:00,
2013-02-17 23:52:00,29.0,17.0,30.29,NW,305,0.0,1.0,60,0.00,,,0.00,,2013-02-18 04:52:00,